Main page
METAR-TAF:

METAR-TAF

Airports :

Plzeň, Czech Republic

latitude: 49-40-31N, longitude: 13-16-29E, elevation: 362 m

Current weather observation

The report was made 58 minutes ago, at 13:00 UTC
Wind 9 kt from the West, varying between South/Southwest and Northwest
Temperature 28°C
Humidity 32%
Pressure 1014 hPa
Visibility 10 km or more
Few clouds at a height of 16000 ft
Scattered clouds at a height of 21000 ft

METAR: LKLN 231300Z AUTO 27009KT 210V310 9999 FEW160 SCT210 28/10 Q1014

Time: 15:58 (13:58 UTC)


TAF: missing

Weather observations and forecasts of more than 4000 airports (METAR and TAF reports).

The available stations are represented by yellow and red dots on the map.

Hover mouse over dot to see the name of the station.

Then click to see weather observations and forecasts.

To change the map : click on the green buttons with a black cross to zoom in, on the green button with a dash to zoom out, or on the green arrows for adjacent maps.


METAR-TAF: